sensor_id;sensor_type;location;lat;lon;timestamp;temperature;humidity
25154;DHT22;47555;51.038;6.280;2023-03-01T00:01:55;0.30;66.10
25154;DHT22;47555;51.038;6.280;2023-03-01T00:04:21;0.30;66.20
25154;DHT22;47555;51.038;6.280;2023-03-01T00:06:46;0.40;66.00
25154;DHT22;47555;51.038;6.280;2023-03-01T00:09:13;0.30;66.30
25154;DHT22;47555;51.038;6.280;2023-03-01T00:11:39;0.30;67.00
25154;DHT22;47555;51.038;6.280;2023-03-01T00:14:05;0.30;67.00
25154;DHT22;47555;51.038;6.280;2023-03-01T00:16:37;0.30;67.10
25154;DHT22;47555;51.038;6.280;2023-03-01T00:19:07;0.20;67.00
25154;DHT22;47555;51.038;6.280;2023-03-01T00:21:34;0.20;67.60
25154;DHT22;47555;51.038;6.280;2023-03-01T00:24:00;0.20;67.70
25154;DHT22;47555;51.038;6.280;2023-03-01T00:26:27;0.10;67.80
25154;DHT22;47555;51.038;6.280;2023-03-01T00:28:54;0.20;68.20
25154;DHT22;47555;51.038;6.280;2023-03-01T00:31:25;0.10;68.40
25154;DHT22;47555;51.038;6.280;2023-03-01T00:33:59;0.10;69.00
25154;DHT22;47555;51.038;6.280;2023-03-01T00:36:32;0.10;69.10
25154;DHT22;47555;51.038;6.280;2023-03-01T00:38:57;0.10;69.10
25154;DHT22;47555;51.038;6.280;2023-03-01T00:41:23;0.10;68.80
25154;DHT22;47555;51.038;6.280;2023-03-01T00:43:50;0.10;68.80
25154;DHT22;47555;51.038;6.280;2023-03-01T00:46:18;0.10;68.70
25154;DHT22;47555;51.038;6.280;2023-03-01T00:48:44;0.10;68.60
25154;DHT22;47555;51.038;6.280;2023-03-01T00:53:43;0.10;68.90
25154;DHT22;47555;51.038;6.280;2023-03-01T00:56:11;0.00;69.30
25154;DHT22;47555;51.038;6.280;2023-03-01T00:58:37;-0.10;69.50
25154;DHT22;47555;51.038;6.280;2023-03-01T01:01:20;-0.10;69.80
25154;DHT22;47555;51.038;6.280;2023-03-01T01:03:48;-0.20;70.20
25154;DHT22;47555;51.038;6.280;2023-03-01T01:06:20;-0.20;71.00
25154;DHT22;47555;51.038;6.280;2023-03-01T01:08:47;-0.20;71.00
25154;DHT22;47555;51.038;6.280;2023-03-01T01:11:13;-0.20;71.00
25154;DHT22;47555;51.038;6.280;2023-03-01T01:13:40;-0.30;71.20
25154;DHT22;47555;51.038;6.280;2023-03-01T01:16:06;-0.30;71.30
25154;DHT22;47555;51.038;6.280;2023-03-01T01:18:32;-0.30;71.80
25154;DHT22;47555;51.038;6.280;2023-03-01T01:20:57;-0.30;72.00
25154;DHT22;47555;51.038;6.280;2023-03-01T01:23:23;-0.30;71.90
25154;DHT22;47555;51.038;6.280;2023-03-01T01:25:49;-0.40;72.80
25154;DHT22;47555;51.038;6.280;2023-03-01T01:28:14;-0.40;72.20
25154;DHT22;47555;51.038;6.280;2023-03-01T01:30:40;-0.40;72.40
25154;DHT22;47555;51.038;6.280;2023-03-01T01:33:05;-0.40;72.40
25154;DHT22;47555;51.038;6.280;2023-03-01T01:35:31;-0.40;72.60
25154;DHT22;47555;51.038;6.280;2023-03-01T01:37:56;-0.50;73.10
25154;DHT22;47555;51.038;6.280;2023-03-01T01:40:24;-0.40;73.50
25154;DHT22;47555;51.038;6.280;2023-03-01T01:42:49;-0.50;74.40
25154;DHT22;47555;51.038;6.280;2023-03-01T01:45:34;-0.50;74.10
25154;DHT22;47555;51.038;6.280;2023-03-01T01:48:13;-0.50;73.90
25154;DHT22;47555;51.038;6.280;2023-03-01T01:50:40;-0.50;74.10
25154;DHT22;47555;51.038;6.280;2023-03-01T01:53:15;-0.60;74.20
25154;DHT22;47555;51.038;6.280;2023-03-01T01:55:45;-0.60;74.40
25154;DHT22;47555;51.038;6.280;2023-03-01T01:58:15;-0.60;74.50
25154;DHT22;47555;51.038;6.280;2023-03-01T02:00:43;-0.60;74.70
25154;DHT22;47555;51.038;6.280;2023-03-01T02:03:12;-0.60;74.70
25154;DHT22;47555;51.038;6.280;2023-03-01T02:05:59;-0.60;74.80
25154;DHT22;47555;51.038;6.280;2023-03-01T02:08:29;-0.60;75.10
25154;DHT22;47555;51.038;6.280;2023-03-01T02:10:56;-0.60;74.90
25154;DHT22;47555;51.038;6.280;2023-03-01T02:13:23;-0.50;75.00
25154;DHT22;47555;51.038;6.280;2023-03-01T02:15:48;-0.60;74.70
25154;DHT22;47555;51.038;6.280;2023-03-01T02:18:17;-0.60;75.00
25154;DHT22;47555;51.038;6.280;2023-03-01T02:23:24;-0.70;75.30
25154;DHT22;47555;51.038;6.280;2023-03-01T02:26:11;-0.70;75.40
25154;DHT22;47555;51.038;6.280;2023-03-01T02:28:42;-0.70;75.60
25154;DHT22;47555;51.038;6.280;2023-03-01T02:31:10;-0.70;75.60
25154;DHT22;47555;51.038;6.280;2023-03-01T02:33:57;-0.70;76.00
25154;DHT22;47555;51.038;6.280;2023-03-01T02:36:34;-0.80;75.90
25154;DHT22;47555;51.038;6.280;2023-03-01T02:39:02;-0.80;75.80
25154;DHT22;47555;51.038;6.280;2023-03-01T02:41:31;-0.90;76.40
25154;DHT22;47555;51.038;6.280;2023-03-01T02:43:58;-0.90;76.40
25154;DHT22;47555;51.038;6.280;2023-03-01T02:46:25;-0.90;77.10
25154;DHT22;47555;51.038;6.280;2023-03-01T02:48:54;-0.90;77.00
25154;DHT22;47555;51.038;6.280;2023-03-01T02:53:54;-1.00;77.30
25154;DHT22;47555;51.038;6.280;2023-03-01T02:56:21;-1.00;77.50
25154;DHT22;47555;51.038;6.280;2023-03-01T02:58:47;-1.00;77.60
25154;DHT22;47555;51.038;6.280;2023-03-01T03:01:17;-0.90;77.50
25154;DHT22;47555;51.038;6.280;2023-03-01T03:03:43;-0.90;77.40
25154;DHT22;47555;51.038;6.280;2023-03-01T03:06:09;-0.90;77.70
25154;DHT22;47555;51.038;6.280;2023-03-01T03:08:34;-1.00;77.50
25154;DHT22;47555;51.038;6.280;2023-03-01T03:11:00;-1.00;77.90
25154;DHT22;47555;51.038;6.280;2023-03-01T03:13:25;-1.00;77.80
25154;DHT22;47555;51.038;6.280;2023-03-01T03:15:55;-1.00;77.80
25154;DHT22;47555;51.038;6.280;2023-03-01T03:18:21;-1.00;78.10
25154;DHT22;47555;51.038;6.280;2023-03-01T03:20:48;-0.90;78.30
25154;DHT22;47555;51.038;6.280;2023-03-01T03:23:18;-1.00;78.10
25154;DHT22;47555;51.038;6.280;2023-03-01T03:25:44;-1.10;78.30
25154;DHT22;47555;51.038;6.280;2023-03-01T03:28:09;-1.10;78.40
25154;DHT22;47555;51.038;6.280;2023-03-01T03:30:38;-1.20;78.40
25154;DHT22;47555;51.038;6.280;2023-03-01T03:33:06;-1.20;78.50
25154;DHT22;47555;51.038;6.280;2023-03-01T03:35:38;-1.20;78.90
25154;DHT22;47555;51.038;6.280;2023-03-01T03:38:08;-1.20;79.20
25154;DHT22;47555;51.038;6.280;2023-03-01T03:40:42;-1.20;79.10
25154;DHT22;47555;51.038;6.280;2023-03-01T03:43:14;-1.10;79.20
25154;DHT22;47555;51.038;6.280;2023-03-01T03:45:40;-1.20;79.30
25154;DHT22;47555;51.038;6.280;2023-03-01T03:48:07;-1.20;79.70
25154;DHT22;47555;51.038;6.280;2023-03-01T03:50:34;-1.20;79.70
25154;DHT22;47555;51.038;6.280;2023-03-01T03:53:01;-1.30;79.90
25154;DHT22;47555;51.038;6.280;2023-03-01T03:55:27;-1.20;79.70
25154;DHT22;47555;51.038;6.280;2023-03-01T03:57:57;-1.30;79.80
25154;DHT22;47555;51.038;6.280;2023-03-01T04:00:23;-1.30;80.00
25154;DHT22;47555;51.038;6.280;2023-03-01T04:02:50;-1.30;80.20
25154;DHT22;47555;51.038;6.280;2023-03-01T04:05:17;-1.40;80.40
25154;DHT22;47555;51.038;6.280;2023-03-01T04:07:44;-1.40;80.30
25154;DHT22;47555;51.038;6.280;2023-03-01T04:10:13;-1.50;80.90
25154;DHT22;47555;51.038;6.280;2023-03-01T04:12:39;-1.50;81.40
25154;DHT22;47555;51.038;6.280;2023-03-01T04:15:06;-1.50;81.40
25154;DHT22;47555;51.038;6.280;2023-03-01T04:17:43;-1.60;81.50
25154;DHT22;47555;51.038;6.280;2023-03-01T04:20:10;-1.60;81.90
25154;DHT22;47555;51.038;6.280;2023-03-01T04:22:37;-1.60;82.10
25154;DHT22;47555;51.038;6.280;2023-03-01T04:25:02;-1.60;82.20
25154;DHT22;47555;51.038;6.280;2023-03-01T04:27:30;-1.60;82.50
25154;DHT22;47555;51.038;6.280;2023-03-01T04:29:55;-1.60;82.40
25154;DHT22;47555;51.038;6.280;2023-03-01T04:32:21;-1.70;82.30
25154;DHT22;47555;51.038;6.280;2023-03-01T04:34:46;-1.70;82.50
25154;DHT22;47555;51.038;6.280;2023-03-01T04:37:12;-1.70;82.70
25154;DHT22;47555;51.038;6.280;2023-03-01T04:39:37;-1.70;82.70
25154;DHT22;47555;51.038;6.280;2023-03-01T04:42:11;-1.70;82.70
25154;DHT22;47555;51.038;6.280;2023-03-01T04:44:36;-1.70;82.60
25154;DHT22;47555;51.038;6.280;2023-03-01T04:47:02;-1.70;82.60
25154;DHT22;47555;51.038;6.280;2023-03-01T04:49:27;-1.70;82.60
25154;DHT22;47555;51.038;6.280;2023-03-01T04:51:53;-1.70;82.60
25154;DHT22;47555;51.038;6.280;2023-03-01T04:54:18;-1.70;82.40
25154;DHT22;47555;51.038;6.280;2023-03-01T04:56:44;-1.70;82.90
25154;DHT22;47555;51.038;6.280;2023-03-01T04:59:10;-1.60;82.60
25154;DHT22;47555;51.038;6.280;2023-03-01T05:01:38;-1.70;82.70
25154;DHT22;47555;51.038;6.280;2023-03-01T05:04:04;-1.70;82.70
25154;DHT22;47555;51.038;6.280;2023-03-01T05:06:31;-1.70;82.70
25154;DHT22;47555;51.038;6.280;2023-03-01T05:08:56;-1.70;82.70
25154;DHT22;47555;51.038;6.280;2023-03-01T05:11:23;-1.70;82.80
25154;DHT22;47555;51.038;6.280;2023-03-01T05:13:48;-1.70;82.90
25154;DHT22;47555;51.038;6.280;2023-03-01T05:16:15;-1.70;83.10
25154;DHT22;47555;51.038;6.280;2023-03-01T05:18:42;-1.80;82.80
25154;DHT22;47555;51.038;6.280;2023-03-01T05:21:10;-1.60;82.70
25154;DHT22;47555;51.038;6.280;2023-03-01T05:23:36;-1.70;82.20
25154;DHT22;47555;51.038;6.280;2023-03-01T05:26:02;-1.80;82.50
25154;DHT22;47555;51.038;6.280;2023-03-01T05:28:29;-1.80;82.70
25154;DHT22;47555;51.038;6.280;2023-03-01T05:30:56;-1.80;82.70
25154;DHT22;47555;51.038;6.280;2023-03-01T05:33:21;-1.80;82.70
25154;DHT22;47555;51.038;6.280;2023-03-01T05:35:47;-1.90;83.00
25154;DHT22;47555;51.038;6.280;2023-03-01T05:38:15;-1.90;83.30
25154;DHT22;47555;51.038;6.280;2023-03-01T05:40:46;-1.90;83.60
25154;DHT22;47555;51.038;6.280;2023-03-01T05:43:13;-1.90;83.60
25154;DHT22;47555;51.038;6.280;2023-03-01T05:45:40;-1.90;83.10
25154;DHT22;47555;51.038;6.280;2023-03-01T05:48:09;-1.90;83.40
25154;DHT22;47555;51.038;6.280;2023-03-01T05:50:37;-2.00;83.60
25154;DHT22;47555;51.038;6.280;2023-03-01T05:53:06;-2.00;83.50
25154;DHT22;47555;51.038;6.280;2023-03-01T05:55:34;-2.10;84.40
25154;DHT22;47555;51.038;6.280;2023-03-01T05:58:01;-2.10;84.30
25154;DHT22;47555;51.038;6.280;2023-03-01T06:00:27;-2.20;84.60
25154;DHT22;47555;51.038;6.280;2023-03-01T06:02:54;-2.20;84.70
25154;DHT22;47555;51.038;6.280;2023-03-01T06:05:20;-2.20;84.60
25154;DHT22;47555;51.038;6.280;2023-03-01T06:07:46;-2.30;84.70
25154;DHT22;47555;51.038;6.280;2023-03-01T06:10:13;-2.30;84.70
25154;DHT22;47555;51.038;6.280;2023-03-01T06:12:40;-2.40;84.90
25154;DHT22;47555;51.038;6.280;2023-03-01T06:15:07;-2.40;85.10
25154;DHT22;47555;51.038;6.280;2023-03-01T06:17:35;-2.40;85.40
25154;DHT22;47555;51.038;6.280;2023-03-01T06:20:07;-2.40;86.10
25154;DHT22;47555;51.038;6.280;2023-03-01T06:22:33;-2.40;85.90
25154;DHT22;47555;51.038;6.280;2023-03-01T06:24:59;-2.40;85.90
25154;DHT22;47555;51.038;6.280;2023-03-01T06:27:24;-2.40;86.20
25154;DHT22;47555;51.038;6.280;2023-03-01T06:29:50;-2.30;86.60
25154;DHT22;47555;51.038;6.280;2023-03-01T06:32:15;-2.30;86.40
25154;DHT22;47555;51.038;6.280;2023-03-01T06:34:41;-2.30;86.20
25154;DHT22;47555;51.038;6.280;2023-03-01T06:37:07;-2.20;86.20
25154;DHT22;47555;51.038;6.280;2023-03-01T06:39:33;-2.30;86.20
25154;DHT22;47555;51.038;6.280;2023-03-01T06:41:59;-2.20;86.20
25154;DHT22;47555;51.038;6.280;2023-03-01T06:44:25;-2.30;86.40
25154;DHT22;47555;51.038;6.280;2023-03-01T06:46:50;-2.30;86.20
25154;DHT22;47555;51.038;6.280;2023-03-01T06:49:16;-2.30;86.00
25154;DHT22;47555;51.038;6.280;2023-03-01T06:51:43;-2.30;86.30
25154;DHT22;47555;51.038;6.280;2023-03-01T06:54:09;-2.20;86.20
25154;DHT22;47555;51.038;6.280;2023-03-01T06:56:35;-2.30;86.20
25154;DHT22;47555;51.038;6.280;2023-03-01T06:59:01;-2.20;86.20
25154;DHT22;47555;51.038;6.280;2023-03-01T07:01:28;-2.20;86.40
25154;DHT22;47555;51.038;6.280;2023-03-01T07:03:54;-2.10;86.10
25154;DHT22;47555;51.038;6.280;2023-03-01T07:06:20;-2.00;86.00
25154;DHT22;47555;51.038;6.280;2023-03-01T07:08:46;-1.90;85.90
25154;DHT22;47555;51.038;6.280;2023-03-01T07:11:12;-1.80;85.30
25154;DHT22;47555;51.038;6.280;2023-03-01T07:13:38;-1.70;85.10
25154;DHT22;47555;51.038;6.280;2023-03-01T07:16:04;-1.60;84.80
25154;DHT22;47555;51.038;6.280;2023-03-01T07:18:29;-1.50;85.00
25154;DHT22;47555;51.038;6.280;2023-03-01T07:20:55;-1.40;84.10
25154;DHT22;47555;51.038;6.280;2023-03-01T07:23:20;-1.20;83.70
25154;DHT22;47555;51.038;6.280;2023-03-01T07:25:54;-1.10;83.40
25154;DHT22;47555;51.038;6.280;2023-03-01T07:28:20;-0.90;81.20
25154;DHT22;47555;51.038;6.280;2023-03-01T07:30:47;-0.80;79.30
25154;DHT22;47555;51.038;6.280;2023-03-01T07:33:12;-0.60;80.00
25154;DHT22;47555;51.038;6.280;2023-03-01T07:35:38;-0.50;79.10
25154;DHT22;47555;51.038;6.280;2023-03-01T07:38:03;-0.30;77.40
25154;DHT22;47555;51.038;6.280;2023-03-01T07:40:29;0.00;75.00
25154;DHT22;47555;51.038;6.280;2023-03-01T07:42:56;0.00;74.40
25154;DHT22;47555;51.038;6.280;2023-03-01T07:45:21;0.10;73.60
25154;DHT22;47555;51.038;6.280;2023-03-01T07:47:47;0.20;73.20
25154;DHT22;47555;51.038;6.280;2023-03-01T07:50:12;0.30;71.90
25154;DHT22;47555;51.038;6.280;2023-03-01T07:52:38;0.40;71.50
25154;DHT22;47555;51.038;6.280;2023-03-01T07:55:04;0.60;71.60
25154;DHT22;47555;51.038;6.280;2023-03-01T07:57:30;0.70;68.90
25154;DHT22;47555;51.038;6.280;2023-03-01T07:59:56;0.90;69.00
25154;DHT22;47555;51.038;6.280;2023-03-01T08:02:22;1.00;67.20
25154;DHT22;47555;51.038;6.280;2023-03-01T08:04:47;1.20;67.20
25154;DHT22;47555;51.038;6.280;2023-03-01T08:07:13;1.50;64.90
25154;DHT22;47555;51.038;6.280;2023-03-01T08:09:39;1.50;64.00
25154;DHT22;47555;51.038;6.280;2023-03-01T08:12:05;1.60;62.40
25154;DHT22;47555;51.038;6.280;2023-03-01T08:14:32;1.60;62.80
25154;DHT22;47555;51.038;6.280;2023-03-01T08:16:58;1.70;62.40
25154;DHT22;47555;51.038;6.280;2023-03-01T08:19:23;1.90;61.50
25154;DHT22;47555;51.038;6.280;2023-03-01T08:21:49;2.10;60.30
25154;DHT22;47555;51.038;6.280;2023-03-01T08:24:14;2.20;59.00
25154;DHT22;47555;51.038;6.280;2023-03-01T08:26:40;2.20;59.00
25154;DHT22;47555;51.038;6.280;2023-03-01T08:29:06;2.40;59.70
25154;DHT22;47555;51.038;6.280;2023-03-01T08:31:34;2.50;57.40
25154;DHT22;47555;51.038;6.280;2023-03-01T08:34:10;2.60;58.00
25154;DHT22;47555;51.038;6.280;2023-03-01T08:36:38;2.70;55.10
25154;DHT22;47555;51.038;6.280;2023-03-01T08:39:05;2.80;55.00
25154;DHT22;47555;51.038;6.280;2023-03-01T08:41:31;2.90;53.80
25154;DHT22;47555;51.038;6.280;2023-03-01T08:43:57;3.00;54.40
25154;DHT22;47555;51.038;6.280;2023-03-01T08:46:30;3.10;54.40
25154;DHT22;47555;51.038;6.280;2023-03-01T08:48:56;3.30;54.20
25154;DHT22;47555;51.038;6.280;2023-03-01T08:51:23;3.40;52.00
25154;DHT22;47555;51.038;6.280;2023-03-01T08:53:48;3.40;52.70
25154;DHT22;47555;51.038;6.280;2023-03-01T08:56:14;3.60;51.10
25154;DHT22;47555;51.038;6.280;2023-03-01T08:58:46;3.80;51.30
25154;DHT22;47555;51.038;6.280;2023-03-01T09:01:13;3.90;48.60
25154;DHT22;47555;51.038;6.280;2023-03-01T09:03:39;3.90;47.00
25154;DHT22;47555;51.038;6.280;2023-03-01T09:06:06;4.00;47.50
25154;DHT22;47555;51.038;6.280;2023-03-01T09:08:34;4.10;46.10
25154;DHT22;47555;51.038;6.280;2023-03-01T09:11:05;4.10;47.20
25154;DHT22;47555;51.038;6.280;2023-03-01T09:13:31;4.20;46.10
25154;DHT22;47555;51.038;6.280;2023-03-01T09:15:58;4.20;43.50
25154;DHT22;47555;51.038;6.280;2023-03-01T09:18:23;4.30;44.20
25154;DHT22;47555;51.038;6.280;2023-03-01T09:20:49;4.30;43.50
25154;DHT22;47555;51.038;6.280;2023-03-01T09:23:14;4.30;43.70
25154;DHT22;47555;51.038;6.280;2023-03-01T09:25:40;4.40;44.30
25154;DHT22;47555;51.038;6.280;2023-03-01T09:28:06;4.60;40.90
25154;DHT22;47555;51.038;6.280;2023-03-01T09:30:31;4.80;41.80
25154;DHT22;47555;51.038;6.280;2023-03-01T09:32:57;4.80;39.90
25154;DHT22;47555;51.038;6.280;2023-03-01T09:35:22;4.80;38.90
25154;DHT22;47555;51.038;6.280;2023-03-01T09:37:49;4.90;38.40
25154;DHT22;47555;51.038;6.280;2023-03-01T09:40:18;5.00;38.60
25154;DHT22;47555;51.038;6.280;2023-03-01T09:43:35;5.00;38.80
25154;DHT22;47555;51.038;6.280;2023-03-01T09:45:43;5.20;38.80
25154;DHT22;47555;51.038;6.280;2023-03-01T09:48:15;5.40;36.70
25154;DHT22;47555;51.038;6.280;2023-03-01T09:50:42;5.40;37.20
25154;DHT22;47555;51.038;6.280;2023-03-01T09:53:17;5.40;36.00
25154;DHT22;47555;51.038;6.280;2023-03-01T09:56:12;5.20;37.00
25154;DHT22;47555;51.038;6.280;2023-03-01T10:01:41;5.30;38.40
25154;DHT22;47555;51.038;6.280;2023-03-01T10:06:34;5.40;37.00
25154;DHT22;47555;51.038;6.280;2023-03-01T10:09:16;5.40;37.10
25154;DHT22;47555;51.038;6.280;2023-03-01T10:11:45;5.40;36.80
25154;DHT22;47555;51.038;6.280;2023-03-01T10:17:25;5.30;37.80
25154;DHT22;47555;51.038;6.280;2023-03-01T10:19:51;5.40;38.00
25154;DHT22;47555;51.038;6.280;2023-03-01T10:22:22;5.50;37.80
25154;DHT22;47555;51.038;6.280;2023-03-01T10:24:51;5.60;37.80
25154;DHT22;47555;51.038;6.280;2023-03-01T10:27:34;5.80;37.80
25154;DHT22;47555;51.038;6.280;2023-03-01T10:30:09;6.00;36.30
25154;DHT22;47555;51.038;6.280;2023-03-01T10:32:38;5.90;36.70
25154;DHT22;47555;51.038;6.280;2023-03-01T10:35:22;5.80;36.60
25154;DHT22;47555;51.038;6.280;2023-03-01T10:38:06;5.70;36.70
25154;DHT22;47555;51.038;6.280;2023-03-01T10:40:33;5.70;37.00
25154;DHT22;47555;51.038;6.280;2023-03-01T10:43:02;5.90;37.70
25154;DHT22;47555;51.038;6.280;2023-03-01T10:45:38;6.00;35.80
25154;DHT22;47555;51.038;6.280;2023-03-01T10:48:23;6.10;36.00
25154;DHT22;47555;51.038;6.280;2023-03-01T10:51:05;6.20;35.40
25154;DHT22;47555;51.038;6.280;2023-03-01T10:53:42;6.30;36.30
25154;DHT22;47555;51.038;6.280;2023-03-01T10:56:13;6.50;34.80
25154;DHT22;47555;51.038;6.280;2023-03-01T10:58:56;6.60;34.40
25154;DHT22;47555;51.038;6.280;2023-03-01T11:06:31;6.90;33.10
25154;DHT22;47555;51.038;6.280;2023-03-01T11:09:19;6.90;33.80
25154;DHT22;47555;51.038;6.280;2023-03-01T11:11:45;7.00;34.10
25154;DHT22;47555;51.038;6.280;2023-03-01T11:14:25;7.20;33.60
25154;DHT22;47555;51.038;6.280;2023-03-01T11:17:11;7.40;32.50
25154;DHT22;47555;51.038;6.280;2023-03-01T11:19:38;7.50;31.40
25154;DHT22;47555;51.038;6.280;2023-03-01T11:22:18;7.50;31.40
25154;DHT22;47555;51.038;6.280;2023-03-01T11:24:50;7.60;31.20
25154;DHT22;47555;51.038;6.280;2023-03-01T11:27:26;7.60;30.80
25154;DHT22;47555;51.038;6.280;2023-03-01T11:32:32;7.30;29.90
25154;DHT22;47555;51.038;6.280;2023-03-01T11:35:21;7.40;30.60
25154;DHT22;47555;51.038;6.280;2023-03-01T11:43:15;7.50;29.60
25154;DHT22;47555;51.038;6.280;2023-03-01T11:48:28;7.60;29.90
25154;DHT22;47555;51.038;6.280;2023-03-01T11:51:02;7.70;28.70
25154;DHT22;47555;51.038;6.280;2023-03-01T11:54:06;7.60;30.00
25154;DHT22;47555;51.038;6.280;2023-03-01T11:56:39;7.70;28.50
25154;DHT22;47555;51.038;6.280;2023-03-01T12:02:36;7.90;28.40
25154;DHT22;47555;51.038;6.280;2023-03-01T12:05:13;8.10;28.20
25154;DHT22;47555;51.038;6.280;2023-03-01T12:13:56;8.40;26.60
25154;DHT22;47555;51.038;6.280;2023-03-01T12:22:43;8.50;27.30
25154;DHT22;47555;51.038;6.280;2023-03-01T12:25:27;8.60;26.30
25154;DHT22;47555;51.038;6.280;2023-03-01T12:31:07;8.70;25.40
25154;DHT22;47555;51.038;6.280;2023-03-01T12:33:39;8.80;24.60
25154;DHT22;47555;51.038;6.280;2023-03-01T12:41:47;8.50;24.70
25154;DHT22;47555;51.038;6.280;2023-03-01T12:44:37;8.50;24.60
25154;DHT22;47555;51.038;6.280;2023-03-01T12:52:52;8.30;24.60
25154;DHT22;47555;51.038;6.280;2023-03-01T13:03:51;8.80;25.30
25154;DHT22;47555;51.038;6.280;2023-03-01T13:06:25;8.90;25.80
25154;DHT22;47555;51.038;6.280;2023-03-01T13:11:42;9.10;24.60
25154;DHT22;47555;51.038;6.280;2023-03-01T13:16:45;9.30;22.90
25154;DHT22;47555;51.038;6.280;2023-03-01T13:19:22;9.20;22.70
25154;DHT22;47555;51.038;6.280;2023-03-01T13:21:50;9.10;23.20
25154;DHT22;47555;51.038;6.280;2023-03-01T13:24:34;9.10;23.10
25154;DHT22;47555;51.038;6.280;2023-03-01T13:32:21;8.80;24.70
25154;DHT22;47555;51.038;6.280;2023-03-01T13:34:52;8.90;24.90
25154;DHT22;47555;51.038;6.280;2023-03-01T13:37:22;9.00;24.20
25154;DHT22;47555;51.038;6.280;2023-03-01T13:39:47;9.00;24.10
25154;DHT22;47555;51.038;6.280;2023-03-01T13:42:37;9.00;23.70
25154;DHT22;47555;51.038;6.280;2023-03-01T13:45:32;9.00;24.00
25154;DHT22;47555;51.038;6.280;2023-03-01T13:47:55;9.00;22.90
25154;DHT22;47555;51.038;6.280;2023-03-01T13:50:26;8.90;22.40
25154;DHT22;47555;51.038;6.280;2023-03-01T13:52:56;8.80;23.40
25154;DHT22;47555;51.038;6.280;2023-03-01T13:58:28;8.80;22.90
25154;DHT22;47555;51.038;6.280;2023-03-01T14:00:57;8.60;22.90
25154;DHT22;47555;51.038;6.280;2023-03-01T14:03:23;8.60;22.40
25154;DHT22;47555;51.038;6.280;2023-03-01T14:06:13;8.50;22.10
25154;DHT22;47555;51.038;6.280;2023-03-01T14:08:42;8.50;23.50
25154;DHT22;47555;51.038;6.280;2023-03-01T14:14:21;8.40;22.10
25154;DHT22;47555;51.038;6.280;2023-03-01T14:19:26;8.40;22.50
25154;DHT22;47555;51.038;6.280;2023-03-01T14:22:13;8.50;23.30
25154;DHT22;47555;51.038;6.280;2023-03-01T14:24:52;8.40;22.40
25154;DHT22;47555;51.038;6.280;2023-03-01T14:27:19;8.40;23.00
25154;DHT22;47555;51.038;6.280;2023-03-01T14:29:55;8.40;23.60
25154;DHT22;47555;51.038;6.280;2023-03-01T14:32:25;8.40;22.70
25154;DHT22;47555;51.038;6.280;2023-03-01T14:34:51;8.40;22.90
25154;DHT22;47555;51.038;6.280;2023-03-01T14:37:30;8.40;23.20
25154;DHT22;47555;51.038;6.280;2023-03-01T14:39:58;8.40;23.30
25154;DHT22;47555;51.038;6.280;2023-03-01T14:42:26;8.40;24.00
25154;DHT22;47555;51.038;6.280;2023-03-01T14:44:54;8.50;23.30
25154;DHT22;47555;51.038;6.280;2023-03-01T14:47:34;8.50;23.90
25154;DHT22;47555;51.038;6.280;2023-03-01T14:50:29;8.40;23.10
25154;DHT22;47555;51.038;6.280;2023-03-01T14:52:59;8.30;23.20
25154;DHT22;47555;51.038;6.280;2023-03-01T14:55:41;8.20;24.60
25154;DHT22;47555;51.038;6.280;2023-03-01T14:58:18;8.20;24.80
25154;DHT22;47555;51.038;6.280;2023-03-01T15:01:04;8.20;24.40
25154;DHT22;47555;51.038;6.280;2023-03-01T15:03:36;8.20;24.40
25154;DHT22;47555;51.038;6.280;2023-03-01T15:06:06;8.20;24.10
25154;DHT22;47555;51.038;6.280;2023-03-01T15:08:33;8.20;24.40
25154;DHT22;47555;51.038;6.280;2023-03-01T15:11:03;8.10;24.30
25154;DHT22;47555;51.038;6.280;2023-03-01T15:13:32;8.00;23.80
25154;DHT22;47555;51.038;6.280;2023-03-01T15:16:25;8.00;24.90
25154;DHT22;47555;51.038;6.280;2023-03-01T15:18:55;8.00;25.20
25154;DHT22;47555;51.038;6.280;2023-03-01T15:21:32;8.00;25.00
25154;DHT22;47555;51.038;6.280;2023-03-01T15:27:12;8.00;25.10
25154;DHT22;47555;51.038;6.280;2023-03-01T15:29:39;8.00;25.60
25154;DHT22;47555;51.038;6.280;2023-03-01T15:32:29;7.90;24.70
25154;DHT22;47555;51.038;6.280;2023-03-01T15:34:57;7.90;25.00
25154;DHT22;47555;51.038;6.280;2023-03-01T15:37:37;7.80;25.50
25154;DHT22;47555;51.038;6.280;2023-03-01T15:40:19;7.80;26.60
25154;DHT22;47555;51.038;6.280;2023-03-01T15:42:46;7.80;26.40
25154;DHT22;47555;51.038;6.280;2023-03-01T15:45:23;7.70;26.20
25154;DHT22;47555;51.038;6.280;2023-03-01T15:47:51;7.70;27.00
25154;DHT22;47555;51.038;6.280;2023-03-01T15:52:51;7.70;26.60
25154;DHT22;47555;51.038;6.280;2023-03-01T15:55:18;7.60;26.90
25154;DHT22;47555;51.038;6.280;2023-03-01T15:57:44;7.50;27.00
25154;DHT22;47555;51.038;6.280;2023-03-01T16:00:11;7.40;26.90
25154;DHT22;47555;51.038;6.280;2023-03-01T16:02:42;7.40;27.60
25154;DHT22;47555;51.038;6.280;2023-03-01T16:05:18;7.40;27.50
25154;DHT22;47555;51.038;6.280;2023-03-01T16:07:44;7.30;28.30
25154;DHT22;47555;51.038;6.280;2023-03-01T16:10:10;7.20;28.20
25154;DHT22;47555;51.038;6.280;2023-03-01T16:12:35;7.10;28.50
25154;DHT22;47555;51.038;6.280;2023-03-01T16:15:01;7.10;29.10
25154;DHT22;47555;51.038;6.280;2023-03-01T16:17:26;7.00;28.70
25154;DHT22;47555;51.038;6.280;2023-03-01T16:19:52;7.00;29.20
25154;DHT22;47555;51.038;6.280;2023-03-01T16:22:17;6.90;29.00
25154;DHT22;47555;51.038;6.280;2023-03-01T16:24:46;6.90;28.60
25154;DHT22;47555;51.038;6.280;2023-03-01T16:27:11;6.80;29.30
25154;DHT22;47555;51.038;6.280;2023-03-01T16:29:37;6.80;29.60
25154;DHT22;47555;51.038;6.280;2023-03-01T16:32:03;6.60;29.50
25154;DHT22;47555;51.038;6.280;2023-03-01T16:34:28;6.60;29.90
25154;DHT22;47555;51.038;6.280;2023-03-01T16:36:55;6.50;30.00
25154;DHT22;47555;51.038;6.280;2023-03-01T16:39:21;6.50;30.30
25154;DHT22;47555;51.038;6.280;2023-03-01T16:41:46;6.20;30.20
25154;DHT22;47555;51.038;6.280;2023-03-01T16:44:12;6.40;30.50
25154;DHT22;47555;51.038;6.280;2023-03-01T16:46:37;6.30;30.30
25154;DHT22;47555;51.038;6.280;2023-03-01T16:49:03;6.20;30.50
25154;DHT22;47555;51.038;6.280;2023-03-01T16:51:28;6.20;30.50
25154;DHT22;47555;51.038;6.280;2023-03-01T16:53:55;6.10;30.10
25154;DHT22;47555;51.038;6.280;2023-03-01T16:56:20;6.10;30.10
25154;DHT22;47555;51.038;6.280;2023-03-01T16:58:46;6.10;30.40
25154;DHT22;47555;51.038;6.280;2023-03-01T17:01:16;6.00;30.60
25154;DHT22;47555;51.038;6.280;2023-03-01T17:03:42;5.90;30.60
25154;DHT22;47555;51.038;6.280;2023-03-01T17:06:11;5.90;30.60
25154;DHT22;47555;51.038;6.280;2023-03-01T17:08:38;5.80;31.10
25154;DHT22;47555;51.038;6.280;2023-03-01T17:11:08;5.80;31.70
25154;DHT22;47555;51.038;6.280;2023-03-01T17:13:35;5.70;31.20
25154;DHT22;47555;51.038;6.280;2023-03-01T17:16:06;5.60;31.50
25154;DHT22;47555;51.038;6.280;2023-03-01T17:18:32;5.60;31.60
25154;DHT22;47555;51.038;6.280;2023-03-01T17:20:58;5.50;32.00
25154;DHT22;47555;51.038;6.280;2023-03-01T17:23:23;5.50;32.00
25154;DHT22;47555;51.038;6.280;2023-03-01T17:25:49;5.40;32.30
25154;DHT22;47555;51.038;6.280;2023-03-01T17:28:15;5.30;32.60
25154;DHT22;47555;51.038;6.280;2023-03-01T17:30:44;5.20;32.80